sensor_id;sensor_type;location;lat;lon;timestamp;temperature;humidity
35633;DHT22;21754;48.216;-1.628;2022-08-21T00:01:50;20.40;99.90
35633;DHT22;21754;48.216;-1.628;2022-08-21T00:04:16;20.40;99.90
35633;DHT22;21754;48.216;-1.628;2022-08-21T00:06:42;20.30;99.90
35633;DHT22;21754;48.216;-1.628;2022-08-21T00:09:08;20.30;99.90
35633;DHT22;21754;48.216;-1.628;2022-08-21T00:11:35;20.30;99.90
35633;DHT22;21754;48.216;-1.628;2022-08-21T00:14:02;20.40;99.90
35633;DHT22;21754;48.216;-1.628;2022-08-21T00:16:27;20.30;99.90
35633;DHT22;21754;48.216;-1.628;2022-08-21T00:18:53;20.30;99.90
35633;DHT22;21754;48.216;-1.628;2022-08-21T00:21:19;20.30;99.90
35633;DHT22;21754;48.216;-1.628;2022-08-21T00:23:44;20.20;99.90
35633;DHT22;21754;48.216;-1.628;2022-08-21T00:26:10;20.20;99.90
35633;DHT22;21754;48.216;-1.628;2022-08-21T02:14:11;20.20;99.90
35633;DHT22;21754;48.216;-1.628;2022-08-21T02:16:38;19.70;99.90
35633;DHT22;21754;48.216;-1.628;2022-08-21T02:19:04;19.70;99.90
35633;DHT22;21754;48.216;-1.628;2022-08-21T02:21:30;19.60;99.90
35633;DHT22;21754;48.216;-1.628;2022-08-21T02:23:55;19.60;99.90
35633;DHT22;21754;48.216;-1.628;2022-08-21T02:26:21;19.50;99.90
35633;DHT22;21754;48.216;-1.628;2022-08-21T02:28:47;19.40;99.90
35633;DHT22;21754;48.216;-1.628;2022-08-21T02:31:13;19.40;99.90
35633;DHT22;21754;48.216;-1.628;2022-08-21T02:33:39;19.40;99.90
35633;DHT22;21754;48.216;-1.628;2022-08-21T02:36:06;19.50;99.90
35633;DHT22;21754;48.216;-1.628;2022-08-21T02:38:34;19.50;99.90
35633;DHT22;21754;48.216;-1.628;2022-08-21T02:41:03;19.50;99.90
35633;DHT22;21754;48.216;-1.628;2022-08-21T02:43:29;19.50;99.90
35633;DHT22;21754;48.216;-1.628;2022-08-21T02:45:57;19.60;99.90
35633;DHT22;21754;48.216;-1.628;2022-08-21T02:48:26;19.70;99.90
35633;DHT22;21754;48.216;-1.628;2022-08-21T02:51:03;19.60;99.90
35633;DHT22;21754;48.216;-1.628;2022-08-21T02:53:31;19.60;99.90
35633;DHT22;21754;48.216;-1.628;2022-08-21T02:55:59;19.60;99.90
35633;DHT22;21754;48.216;-1.628;2022-08-21T02:58:28;19.50;99.90
35633;DHT22;21754;48.216;-1.628;2022-08-21T03:00:56;19.50;99.90
35633;DHT22;21754;48.216;-1.628;2022-08-21T03:03:24;19.40;99.90
35633;DHT22;21754;48.216;-1.628;2022-08-21T03:05:50;19.30;99.90
35633;DHT22;21754;48.216;-1.628;2022-08-21T03:08:16;19.30;99.90
35633;DHT22;21754;48.216;-1.628;2022-08-21T03:10:47;19.30;99.90
35633;DHT22;21754;48.216;-1.628;2022-08-21T03:13:14;19.30;99.90
35633;DHT22;21754;48.216;-1.628;2022-08-21T03:15:41;19.30;99.90
35633;DHT22;21754;48.216;-1.628;2022-08-21T03:18:08;19.30;99.90
35633;DHT22;21754;48.216;-1.628;2022-08-21T03:20:35;19.30;99.90
35633;DHT22;21754;48.216;-1.628;2022-08-21T03:23:03;19.40;99.90
35633;DHT22;21754;48.216;-1.628;2022-08-21T03:25:29;19.40;99.90
35633;DHT22;21754;48.216;-1.628;2022-08-21T03:27:58;19.40;99.90
35633;DHT22;21754;48.216;-1.628;2022-08-21T03:30:24;19.50;99.90
35633;DHT22;21754;48.216;-1.628;2022-08-21T03:32:50;19.50;99.90
35633;DHT22;21754;48.216;-1.628;2022-08-21T03:35:16;19.50;99.90
35633;DHT22;21754;48.216;-1.628;2022-08-21T03:37:43;19.50;99.90
35633;DHT22;21754;48.216;-1.628;2022-08-21T03:40:11;19.50;99.90
35633;DHT22;21754;48.216;-1.628;2022-08-21T03:42:37;19.50;99.90
35633;DHT22;21754;48.216;-1.628;2022-08-21T03:45:04;19.50;99.90
35633;DHT22;21754;48.216;-1.628;2022-08-21T03:47:29;19.50;99.90
35633;DHT22;21754;48.216;-1.628;2022-08-21T03:49:55;19.40;99.90
35633;DHT22;21754;48.216;-1.628;2022-08-21T03:52:21;19.40;99.90
35633;DHT22;21754;48.216;-1.628;2022-08-21T03:54:47;19.40;99.90
35633;DHT22;21754;48.216;-1.628;2022-08-21T03:57:13;19.30;99.90
35633;DHT22;21754;48.216;-1.628;2022-08-21T03:59:39;19.30;99.90
35633;DHT22;21754;48.216;-1.628;2022-08-21T04:02:06;19.30;99.90
35633;DHT22;21754;48.216;-1.628;2022-08-21T04:04:32;19.30;99.90
35633;DHT22;21754;48.216;-1.628;2022-08-21T04:06:58;19.40;99.90
35633;DHT22;21754;48.216;-1.628;2022-08-21T04:09:24;19.30;99.90
35633;DHT22;21754;48.216;-1.628;2022-08-21T04:11:50;19.40;99.90
35633;DHT22;21754;48.216;-1.628;2022-08-21T04:14:16;19.40;99.90
35633;DHT22;21754;48.216;-1.628;2022-08-21T04:16:42;19.40;99.90
35633;DHT22;21754;48.216;-1.628;2022-08-21T04:19:09;19.40;99.90
35633;DHT22;21754;48.216;-1.628;2022-08-21T04:21:36;19.50;99.90
35633;DHT22;21754;48.216;-1.628;2022-08-21T04:24:03;19.50;99.90
35633;DHT22;21754;48.216;-1.628;2022-08-21T04:26:29;19.50;99.90
35633;DHT22;21754;48.216;-1.628;2022-08-21T04:28:56;19.50;99.90
35633;DHT22;21754;48.216;-1.628;2022-08-21T04:31:23;19.60;99.90
35633;DHT22;21754;48.216;-1.628;2022-08-21T04:33:49;19.60;99.90
35633;DHT22;21754;48.216;-1.628;2022-08-21T04:36:14;19.60;99.90
35633;DHT22;21754;48.216;-1.628;2022-08-21T04:38:40;19.60;99.90
35633;DHT22;21754;48.216;-1.628;2022-08-21T04:41:06;19.60;99.90
35633;DHT22;21754;48.216;-1.628;2022-08-21T04:43:32;19.60;99.90
35633;DHT22;21754;48.216;-1.628;2022-08-21T04:45:57;19.60;99.90
35633;DHT22;21754;48.216;-1.628;2022-08-21T04:48:23;19.50;99.90
35633;DHT22;21754;48.216;-1.628;2022-08-21T04:54:16;19.30;99.90
35633;DHT22;21754;48.216;-1.628;2022-08-21T04:56:42;19.60;99.90
35633;DHT22;21754;48.216;-1.628;2022-08-21T04:59:13;19.60;99.90
35633;DHT22;21754;48.216;-1.628;2022-08-21T05:01:40;19.50;99.90
35633;DHT22;21754;48.216;-1.628;2022-08-21T05:04:08;19.50;99.90
35633;DHT22;21754;48.216;-1.628;2022-08-21T05:06:37;19.50;99.90
35633;DHT22;21754;48.216;-1.628;2022-08-21T05:09:05;19.50;99.90
35633;DHT22;21754;48.216;-1.628;2022-08-21T05:11:32;19.40;99.90
35633;DHT22;21754;48.216;-1.628;2022-08-21T05:13:58;19.40;99.90
35633;DHT22;21754;48.216;-1.628;2022-08-21T05:16:24;19.40;99.90
35633;DHT22;21754;48.216;-1.628;2022-08-21T05:18:50;19.40;99.90
35633;DHT22;21754;48.216;-1.628;2022-08-21T05:21:16;19.40;99.90
35633;DHT22;21754;48.216;-1.628;2022-08-21T05:23:42;19.40;99.90
35633;DHT22;21754;48.216;-1.628;2022-08-21T05:26:08;19.40;99.90
35633;DHT22;21754;48.216;-1.628;2022-08-21T05:28:34;19.40;99.90
35633;DHT22;21754;48.216;-1.628;2022-08-21T05:30:59;19.40;99.90
35633;DHT22;21754;48.216;-1.628;2022-08-21T05:33:25;19.40;99.90
35633;DHT22;21754;48.216;-1.628;2022-08-21T05:35:52;19.40;99.90
35633;DHT22;21754;48.216;-1.628;2022-08-21T05:38:18;19.50;99.90
35633;DHT22;21754;48.216;-1.628;2022-08-21T05:40:45;19.50;99.90
35633;DHT22;21754;48.216;-1.628;2022-08-21T05:43:11;19.50;99.90
35633;DHT22;21754;48.216;-1.628;2022-08-21T05:45:36;19.50;99.90
35633;DHT22;21754;48.216;-1.628;2022-08-21T05:48:16;19.50;99.90
35633;DHT22;21754;48.216;-1.628;2022-08-21T05:50:43;19.50;99.90
35633;DHT22;21754;48.216;-1.628;2022-08-21T05:53:10;19.50;99.90
35633;DHT22;21754;48.216;-1.628;2022-08-21T05:55:38;19.50;99.90
35633;DHT22;21754;48.216;-1.628;2022-08-21T05:58:04;19.40;99.90
35633;DHT22;21754;48.216;-1.628;2022-08-21T06:00:30;19.40;99.90
35633;DHT22;21754;48.216;-1.628;2022-08-21T06:02:56;19.40;99.90
35633;DHT22;21754;48.216;-1.628;2022-08-21T06:05:21;19.50;99.90
35633;DHT22;21754;48.216;-1.628;2022-08-21T06:07:47;19.50;99.90
35633;DHT22;21754;48.216;-1.628;2022-08-21T06:10:13;19.50;99.90
35633;DHT22;21754;48.216;-1.628;2022-08-21T06:12:38;19.60;99.90
35633;DHT22;21754;48.216;-1.628;2022-08-21T06:15:05;19.70;99.90
35633;DHT22;21754;48.216;-1.628;2022-08-21T06:17:30;19.80;99.90
35633;DHT22;21754;48.216;-1.628;2022-08-21T06:19:56;19.80;99.90
35633;DHT22;21754;48.216;-1.628;2022-08-21T06:22:22;19.90;99.90
35633;DHT22;21754;48.216;-1.628;2022-08-21T06:24:48;20.00;99.90
35633;DHT22;21754;48.216;-1.628;2022-08-21T06:27:14;20.10;99.90
35633;DHT22;21754;48.216;-1.628;2022-08-21T06:29:40;20.20;99.90
35633;DHT22;21754;48.216;-1.628;2022-08-21T06:32:10;20.20;99.90
35633;DHT22;21754;48.216;-1.628;2022-08-21T06:34:36;20.20;99.90
35633;DHT22;21754;48.216;-1.628;2022-08-21T06:37:04;20.20;99.90
35633;DHT22;21754;48.216;-1.628;2022-08-21T06:39:30;20.30;99.90
35633;DHT22;21754;48.216;-1.628;2022-08-21T06:41:56;20.30;99.90
35633;DHT22;21754;48.216;-1.628;2022-08-21T06:44:21;20.40;99.90
35633;DHT22;21754;48.216;-1.628;2022-08-21T06:46:47;20.40;99.90
35633;DHT22;21754;48.216;-1.628;2022-08-21T06:49:13;20.30;99.90
35633;DHT22;21754;48.216;-1.628;2022-08-21T06:51:40;20.30;99.90
35633;DHT22;21754;48.216;-1.628;2022-08-21T06:54:05;20.40;99.90
35633;DHT22;21754;48.216;-1.628;2022-08-21T06:56:31;20.50;99.90
35633;DHT22;21754;48.216;-1.628;2022-08-21T06:58:58;20.50;99.90
35633;DHT22;21754;48.216;-1.628;2022-08-21T07:01:26;20.60;99.90
35633;DHT22;21754;48.216;-1.628;2022-08-21T07:03:52;20.70;99.90
35633;DHT22;21754;48.216;-1.628;2022-08-21T07:06:18;20.70;99.90
35633;DHT22;21754;48.216;-1.628;2022-08-21T07:08:44;20.80;99.90
35633;DHT22;21754;48.216;-1.628;2022-08-21T07:11:14;20.80;99.90
35633;DHT22;21754;48.216;-1.628;2022-08-21T07:13:41;20.90;99.90
35633;DHT22;21754;48.216;-1.628;2022-08-21T07:16:07;20.90;99.90
35633;DHT22;21754;48.216;-1.628;2022-08-21T07:18:33;21.00;99.90
35633;DHT22;21754;48.216;-1.628;2022-08-21T07:21:01;21.10;99.90
35633;DHT22;21754;48.216;-1.628;2022-08-21T07:23:31;21.10;99.90
35633;DHT22;21754;48.216;-1.628;2022-08-21T07:25:58;21.20;99.90
35633;DHT22;21754;48.216;-1.628;2022-08-21T07:28:24;21.20;99.90
35633;DHT22;21754;48.216;-1.628;2022-08-21T07:30:52;21.30;99.90
35633;DHT22;21754;48.216;-1.628;2022-08-21T07:33:18;21.30;99.90
35633;DHT22;21754;48.216;-1.628;2022-08-21T07:35:44;21.40;99.90
35633;DHT22;21754;48.216;-1.628;2022-08-21T07:38:10;21.40;99.90
35633;DHT22;21754;48.216;-1.628;2022-08-21T07:40:36;21.50;99.90
35633;DHT22;21754;48.216;-1.628;2022-08-21T07:43:02;21.40;99.90
35633;DHT22;21754;48.216;-1.628;2022-08-21T07:45:28;21.40;99.90
35633;DHT22;21754;48.216;-1.628;2022-08-21T07:47:53;21.40;99.90
35633;DHT22;21754;48.216;-1.628;2022-08-21T07:50:19;21.40;99.90
35633;DHT22;21754;48.216;-1.628;2022-08-21T07:52:45;21.40;99.90
35633;DHT22;21754;48.216;-1.628;2022-08-21T07:55:14;21.50;99.90
35633;DHT22;21754;48.216;-1.628;2022-08-21T08:36:59;21.60;99.90
35633;DHT22;21754;48.216;-1.628;2022-08-21T08:39:25;22.90;99.90
35633;DHT22;21754;48.216;-1.628;2022-08-21T08:41:59;22.90;99.90
35633;DHT22;21754;48.216;-1.628;2022-08-21T08:44:25;23.00;99.90
35633;DHT22;21754;48.216;-1.628;2022-08-21T09:32:29;23.10;99.90
35633;DHT22;21754;48.216;-1.628;2022-08-21T09:35:18;24.60;99.90
35633;DHT22;21754;48.216;-1.628;2022-08-21T10:03:18;24.60;99.90
35633;DHT22;21754;48.216;-1.628;2022-08-21T10:06:02;25.20;99.90
35633;DHT22;21754;48.216;-1.628;2022-08-21T10:08:32;25.20;99.90
35633;DHT22;21754;48.216;-1.628;2022-08-21T10:11:17;25.20;99.90
35633;DHT22;21754;48.216;-1.628;2022-08-21T10:14:15;25.20;99.90
35633;DHT22;21754;48.216;-1.628;2022-08-21T10:32:53;25.40;99.90
35633;DHT22;21754;48.216;-1.628;2022-08-21T11:22:33;25.70;99.90
35633;DHT22;21754;48.216;-1.628;2022-08-21T11:28:07;25.70;99.90
35633;DHT22;21754;48.216;-1.628;2022-08-21T11:39:12;25.70;99.90
35633;DHT22;21754;48.216;-1.628;2022-08-21T11:50:18;25.50;99.90
35633;DHT22;21754;48.216;-1.628;2022-08-21T11:55:59;25.40;99.90
35633;DHT22;21754;48.216;-1.628;2022-08-21T12:01:26;25.50;99.90
35633;DHT22;21754;48.216;-1.628;2022-08-21T12:04:01;25.40;99.90
35633;DHT22;21754;48.216;-1.628;2022-08-21T12:06:34;25.40;99.90
35633;DHT22;21754;48.216;-1.628;2022-08-21T12:11:59;25.40;99.90
35633;DHT22;21754;48.216;-1.628;2022-08-21T12:14:37;25.40;99.90
35633;DHT22;21754;48.216;-1.628;2022-08-21T12:17:08;25.30;99.90
35633;DHT22;21754;48.216;-1.628;2022-08-21T12:19:33;25.20;99.90
35633;DHT22;21754;48.216;-1.628;2022-08-21T12:24:33;25.00;99.90
35633;DHT22;21754;48.216;-1.628;2022-08-21T12:29:55;24.90;99.90
35633;DHT22;21754;48.216;-1.628;2022-08-21T12:35:16;24.70;99.90
35633;DHT22;21754;48.216;-1.628;2022-08-21T12:37:48;24.70;99.90
35633;DHT22;21754;48.216;-1.628;2022-08-21T12:40:23;24.80;99.90
35633;DHT22;21754;48.216;-1.628;2022-08-21T12:42:52;24.90;99.90
35633;DHT22;21754;48.216;-1.628;2022-08-21T12:45:37;25.10;99.90
35633;DHT22;21754;48.216;-1.628;2022-08-21T12:53:40;25.40;99.90
35633;DHT22;21754;48.216;-1.628;2022-08-21T12:56:14;25.60;99.90
35633;DHT22;21754;48.216;-1.628;2022-08-21T12:58:44;25.70;99.90
35633;DHT22;21754;48.216;-1.628;2022-08-21T13:01:20;25.90;99.90
35633;DHT22;21754;48.216;-1.628;2022-08-21T13:03:49;26.00;99.90
35633;DHT22;21754;48.216;-1.628;2022-08-21T13:06:17;26.10;99.90
35633;DHT22;21754;48.216;-1.628;2022-08-21T13:08:45;26.10;99.90
35633;DHT22;21754;48.216;-1.628;2022-08-21T13:11:16;26.20;99.90
35633;DHT22;21754;48.216;-1.628;2022-08-21T13:13:42;26.20;99.90
35633;DHT22;21754;48.216;-1.628;2022-08-21T13:16:08;26.30;99.90
35633;DHT22;21754;48.216;-1.628;2022-08-21T13:18:39;26.30;99.90
35633;DHT22;21754;48.216;-1.628;2022-08-21T13:21:16;26.20;99.90
35633;DHT22;21754;48.216;-1.628;2022-08-21T13:23:42;26.10;99.90
35633;DHT22;21754;48.216;-1.628;2022-08-21T13:26:20;26.10;99.90
35633;DHT22;21754;48.216;-1.628;2022-08-21T13:28:46;26.10;99.90
35633;DHT22;21754;48.216;-1.628;2022-08-21T13:31:22;26.10;99.90
35633;DHT22;21754;48.216;-1.628;2022-08-21T13:33:50;26.10;99.90
35633;DHT22;21754;48.216;-1.628;2022-08-21T13:36:35;26.10;99.90
35633;DHT22;21754;48.216;-1.628;2022-08-21T13:39:03;26.10;99.90
35633;DHT22;21754;48.216;-1.628;2022-08-21T13:41:32;26.10;99.90
35633;DHT22;21754;48.216;-1.628;2022-08-21T13:44:34;26.10;99.90
35633;DHT22;21754;48.216;-1.628;2022-08-21T13:47:02;26.20;99.90
35633;DHT22;21754;48.216;-1.628;2022-08-21T13:49:31;26.30;99.90
35633;DHT22;21754;48.216;-1.628;2022-08-21T13:51:57;26.50;99.90
35633;DHT22;21754;48.216;-1.628;2022-08-21T13:54:33;26.70;99.90
35633;DHT22;21754;48.216;-1.628;2022-08-21T13:56:59;26.70;99.90
35633;DHT22;21754;48.216;-1.628;2022-08-21T14:02:01;26.80;99.90
35633;DHT22;21754;48.216;-1.628;2022-08-21T14:04:38;26.80;99.90
35633;DHT22;21754;48.216;-1.628;2022-08-21T14:07:18;26.70;99.90
35633;DHT22;21754;48.216;-1.628;2022-08-21T14:09:45;26.60;99.90
35633;DHT22;21754;48.216;-1.628;2022-08-21T14:12:38;26.50;99.90
35633;DHT22;21754;48.216;-1.628;2022-08-21T14:15:06;26.10;99.90
35633;DHT22;21754;48.216;-1.628;2022-08-21T14:17:37;26.30;99.90
35633;DHT22;21754;48.216;-1.628;2022-08-21T14:20:08;26.20;99.90
35633;DHT22;21754;48.216;-1.628;2022-08-21T14:22:38;26.20;99.90
35633;DHT22;21754;48.216;-1.628;2022-08-21T14:25:11;26.10;99.90
35633;DHT22;21754;48.216;-1.628;2022-08-21T14:27:48;26.10;99.90
35633;DHT22;21754;48.216;-1.628;2022-08-21T14:32:52;25.80;99.90
35633;DHT22;21754;48.216;-1.628;2022-08-21T14:35:19;25.70;99.90
35633;DHT22;21754;48.216;-1.628;2022-08-21T14:37:47;25.70;99.90
35633;DHT22;21754;48.216;-1.628;2022-08-21T14:40:13;25.70;99.90
35633;DHT22;21754;48.216;-1.628;2022-08-21T14:42:42;25.70;99.90
35633;DHT22;21754;48.216;-1.628;2022-08-21T14:45:15;25.70;99.90
35633;DHT22;21754;48.216;-1.628;2022-08-21T14:47:41;25.50;99.90
35633;DHT22;21754;48.216;-1.628;2022-08-21T14:50:08;25.40;99.90
35633;DHT22;21754;48.216;-1.628;2022-08-21T14:52:34;25.40;99.90
35633;DHT22;21754;48.216;-1.628;2022-08-21T14:55:00;25.40;99.90
35633;DHT22;21754;48.216;-1.628;2022-08-21T14:57:29;25.50;99.90
35633;DHT22;21754;48.216;-1.628;2022-08-21T14:59:55;25.50;99.90
35633;DHT22;21754;48.216;-1.628;2022-08-21T15:02:21;25.50;99.90
35633;DHT22;21754;48.216;-1.628;2022-08-21T15:04:47;25.50;99.90
35633;DHT22;21754;48.216;-1.628;2022-08-21T15:07:12;25.50;99.90
35633;DHT22;21754;48.216;-1.628;2022-08-21T15:09:38;25.60;99.90
35633;DHT22;21754;48.216;-1.628;2022-08-21T15:12:05;25.60;99.90
35633;DHT22;21754;48.216;-1.628;2022-08-21T15:14:34;25.70;99.90
35633;DHT22;21754;48.216;-1.628;2022-08-21T15:17:00;25.70;99.90
35633;DHT22;21754;48.216;-1.628;2022-08-21T15:19:26;25.70;99.90
35633;DHT22;21754;48.216;-1.628;2022-08-21T15:21:52;25.70;99.90
35633;DHT22;21754;48.216;-1.628;2022-08-21T15:24:18;25.60;99.90
35633;DHT22;21754;48.216;-1.628;2022-08-21T15:26:44;25.50;99.90
35633;DHT22;21754;48.216;-1.628;2022-08-21T15:29:10;25.40;99.90
35633;DHT22;21754;48.216;-1.628;2022-08-21T15:31:36;25.30;99.90
35633;DHT22;21754;48.216;-1.628;2022-08-21T15:34:14;25.30;99.90
35633;DHT22;21754;48.216;-1.628;2022-08-21T15:36:39;25.10;99.90
35633;DHT22;21754;48.216;-1.628;2022-08-21T15:39:05;25.00;99.90
35633;DHT22;21754;48.216;-1.628;2022-08-21T15:41:31;25.10;99.90
35633;DHT22;21754;48.216;-1.628;2022-08-21T15:43:56;25.00;99.90
35633;DHT22;21754;48.216;-1.628;2022-08-21T15:46:22;25.00;99.90
35633;DHT22;21754;48.216;-1.628;2022-08-21T15:48:48;25.00;99.90
35633;DHT22;21754;48.216;-1.628;2022-08-21T15:51:14;24.90;99.90
35633;DHT22;21754;48.216;-1.628;2022-08-21T15:53:41;24.80;99.90
35633;DHT22;21754;48.216;-1.628;2022-08-21T15:56:20;24.80;99.90
35633;DHT22;21754;48.216;-1.628;2022-08-21T15:58:47;24.90;99.90
35633;DHT22;21754;48.216;-1.628;2022-08-21T16:01:13;25.00;99.90
35633;DHT22;21754;48.216;-1.628;2022-08-21T16:03:39;25.00;99.90
35633;DHT22;21754;48.216;-1.628;2022-08-21T16:06:04;25.10;99.90
35633;DHT22;21754;48.216;-1.628;2022-08-21T16:08:30;25.10;99.90
35633;DHT22;21754;48.216;-1.628;2022-08-21T16:10:56;25.10;99.90
35633;DHT22;21754;48.216;-1.628;2022-08-21T16:13:27;25.10;99.90
35633;DHT22;21754;48.216;-1.628;2022-08-21T16:15:53;25.10;99.90
35633;DHT22;21754;48.216;-1.628;2022-08-21T16:18:20;25.10;99.90
35633;DHT22;21754;48.216;-1.628;2022-08-21T16:20:46;25.10;99.90
35633;DHT22;21754;48.216;-1.628;2022-08-21T16:23:11;25.10;99.90
35633;DHT22;21754;48.216;-1.628;2022-08-21T16:25:38;25.10;99.90
35633;DHT22;21754;48.216;-1.628;2022-08-21T16:28:07;25.00;99.90
35633;DHT22;21754;48.216;-1.628;2022-08-21T16:30:34;25.00;99.90
35633;DHT22;21754;48.216;-1.628;2022-08-21T16:33:01;24.90;99.90
35633;DHT22;21754;48.216;-1.628;2022-08-21T16:35:28;24.80;99.90
35633;DHT22;21754;48.216;-1.628;2022-08-21T16:37:53;24.70;99.90
35633;DHT22;21754;48.216;-1.628;2022-08-21T16:40:20;24.70;99.90
35633;DHT22;21754;48.216;-1.628;2022-08-21T16:42:47;24.60;99.90
35633;DHT22;21754;48.216;-1.628;2022-08-21T16:45:15;24.50;99.90
35633;DHT22;21754;48.216;-1.628;2022-08-21T16:47:42;24.50;99.90
35633;DHT22;21754;48.216;-1.628;2022-08-21T16:50:10;24.50;99.90
35633;DHT22;21754;48.216;-1.628;2022-08-21T16:52:37;24.50;99.90
35633;DHT22;21754;48.216;-1.628;2022-08-21T16:55:03;24.50;99.90
35633;DHT22;21754;48.216;-1.628;2022-08-21T16:57:30;24.50;99.90
35633;DHT22;21754;48.216;-1.628;2022-08-21T16:59:56;24.50;99.90
35633;DHT22;21754;48.216;-1.628;2022-08-21T17:02:36;24.40;99.90
35633;DHT22;21754;48.216;-1.628;2022-08-21T17:05:04;24.40;99.90
35633;DHT22;21754;48.216;-1.628;2022-08-21T17:07:30;24.30;99.90
35633;DHT22;21754;48.216;-1.628;2022-08-21T17:31:55;24.30;99.90
35633;DHT22;21754;48.216;-1.628;2022-08-21T17:34:22;24.30;99.90
35633;DHT22;21754;48.216;-1.628;2022-08-21T17:36:48;24.20;99.90
35633;DHT22;21754;48.216;-1.628;2022-08-21T17:39:14;24.20;99.90
35633;DHT22;21754;48.216;-1.628;2022-08-21T17:41:41;24.20;99.90
35633;DHT22;21754;48.216;-1.628;2022-08-21T17:44:09;24.20;99.90
35633;DHT22;21754;48.216;-1.628;2022-08-21T17:46:36;24.20;99.90
35633;DHT22;21754;48.216;-1.628;2022-08-21T17:49:06;24.20;99.90
35633;DHT22;21754;48.216;-1.628;2022-08-21T17:51:32;24.10;99.90
35633;DHT22;21754;48.216;-1.628;2022-08-21T17:53:58;24.10;99.90
35633;DHT22;21754;48.216;-1.628;2022-08-21T17:56:31;24.00;99.90
35633;DHT22;21754;48.216;-1.628;2022-08-21T17:58:57;24.00;99.90
35633;DHT22;21754;48.216;-1.628;2022-08-21T18:01:24;24.00;99.90
35633;DHT22;21754;48.216;-1.628;2022-08-21T18:03:50;24.00;99.90
35633;DHT22;21754;48.216;-1.628;2022-08-21T18:06:16;24.00;99.90
35633;DHT22;21754;48.216;-1.628;2022-08-21T18:08:42;24.00;99.90
35633;DHT22;21754;48.216;-1.628;2022-08-21T18:11:07;23.90;99.90
35633;DHT22;21754;48.216;-1.628;2022-08-21T18:13:36;24.00;99.90
35633;DHT22;21754;48.216;-1.628;2022-08-21T18:16:03;23.90;99.90
35633;DHT22;21754;48.216;-1.628;2022-08-21T18:18:39;23.90;99.90
35633;DHT22;21754;48.216;-1.628;2022-08-21T18:21:05;23.90;99.90
35633;DHT22;21754;48.216;-1.628;2022-08-21T18:23:31;23.90;99.90
35633;DHT22;21754;48.216;-1.628;2022-08-21T18:25:57;23.80;99.90
35633;DHT22;21754;48.216;-1.628;2022-08-21T18:28:24;23.90;99.90
35633;DHT22;21754;48.216;-1.628;2022-08-21T18:30:50;23.80;99.90
35633;DHT22;21754;48.216;-1.628;2022-08-21T18:33:19;23.80;99.90
35633;DHT22;21754;48.216;-1.628;2022-08-21T18:35:45;23.80;99.90
35633;DHT22;21754;48.216;-1.628;2022-08-21T18:38:11;23.80;99.90
35633;DHT22;21754;48.216;-1.628;2022-08-21T18:40:44;23.80;99.90
35633;DHT22;21754;48.216;-1.628;2022-08-21T19:59:16;23.90;99.90
